Little York, NY

2:39 AM EST on March 04, 2015 (GMT -0500)
cortland | Change Station
CLOSE
Current Station
Personal Weather Station
Location: Cortland, NY
Elevation: 1148 ft
Nearby Weather Stations
Active Advisory: Winter Weather Advisory Active Notice: Public Information Statement

Elev 1148 ft 42.65 °N, 76.12 °W | Updated 2 minutes ago

Ice Pellets
Ice Pellets
33.0 °F
Feels Like 33 °F
N
2.0
Wind Variable Wind from East
Gusts 3.0 mph

Today
High -- | Low -- °F
--% Chance of Precip.
Yesterday
High -- | Low -- °F
Precip. -- in
6:35 AM 5:57 PM
Waxing Gibbous, 98% visible
Pressure 29.69 in
Visibility 3.0 miles
Clouds Overcast 1000 ft
Windchill 33 °F
Dew Point 31 °F
Humidity 93%
Rainfall 0.00 in
Snow Depth Not available.
UV 0 out of 12
Pollen .40 out of 12
Air Quality Not available.
Flu Activity Not available.
METAR KN03 040735Z AUTO 25003KT 3SM -SN OVC010 00/00 A2969 RMK AO2

More Conditions Fewer Conditions

Pressure 29.69 in
Visibility 3.0 miles
Clouds Overcast 1000 ft
Windchill 33 °F
Dew Point 31 °F
Humidity 93%
Rainfall 0.00 in
Snow Depth Not available.
UV 0 out of 12
Pollen .40 out of 12
Air Quality Not available.
Flu Activity Not available.
METAR KN03 040735Z AUTO 25003KT 3SM -SN OVC010 00/00 A2969 RMK AO2

More Conditions Fewer Conditions

10-Day Weather Forecast

Almanac

Astronomy

Mar. 04, 2015 Rise Set
Actual Time
Civil Twilight
Nautical Twilight
Astronomical Twilight
Moon
Length of Visible Light
Length of Day
Tomorrow will be .
, % of the Moon is Illuminated

Today's Extremes

State Highs State Lows

Community

WunderPhotos

Upload Photos

1,802,402 photos uploaded!

WunderBlogs® & News

Nearby

Air Quality

  Air Quality AQ Index Pollutant
Not available.

Snow Depth

Station Depth Elevation

Earthquake Activity

City Distance Mag. Time & Date
Minimum magnitude displayed is 2.5.

Coastal Water Temperatures

Place Temperature

Nearby Weather Stations

Winter Weather Advisory
Statement as of 1:07 AM EST on March 04, 2015

... Winter Weather Advisory remains in effect until 7 am EST this
morning...

* locations... most of central New York to the western Catskills.

* Hazards... areas of freezing drizzle.

* Accumulations... a trace to thin light coating of ice. Very
little if any additional snow and sleet.

* Timing... the remainder of the overnight period.

* Temperatures... in the upper 20s to low 30s.

* Winds... southwest 10 to 15 mph with gusts up to 25 mph.

* Impacts... untreated roads will be hazardous.

Precautionary/preparedness actions...

This Winter Weather Advisory means that periods freezing drizzle will
cause travel difficulties. Be prepared for slippery roads and
limited visibilities... and use caution while driving.

Please report snowfall and/or ice amounts to the National Weather
Service by calling toll free at 1-888-603-1402... or by email at
bgm.Stormreport@noaa.Gov.